Terminal Aerodrome Forecast
Issued by NWS

Home | Current Version | Previous Version | Text Only | Print | Product List | Glossary Off
Versions: 1 2 3 4 5 6 7 8 9 10 11

882
FTUS43 KFGF 261720
TAFBJI
TAF
KBJI 261720Z 2618/2718 09014KT P6SM SCT050 OVC100
     FM270000 09009KT P6SM SCT150=

USA.gov is the U.S. government's official web portal to all federal, state and local government web resources and services.